Time;durP1;ratioP1;P1;durP2;ratioP2;P2;SDS_P1;SDS_P2;PMS_P1;PMS_P2;Temp;Humidity;BMP_temperature;BMP_pressure;BME280_temperature;BME280_humidity;BME280_pressure;Samples;Min_cycle;Max_cycle;Signal;HPM_P1;HPM_P2
2021/05/28 00:01:43;;;;;;;6.28;5.05;;;9.20;99.90;;;;;;5046870;28;20750;-70
2021/05/28 00:04:10;;;;;;;4.90;4.40;;;9.30;99.90;;;;;;5040031;28;20724;-70
2021/05/28 00:06:37;;;;;;;5.45;4.50;;;9.20;99.90;;;;;;5057311;28;20561;-72
2021/05/28 00:09:05;;;;;;;11.35;4.35;;;9.10;99.90;;;;;;5053213;28;20204;-72
2021/05/28 00:11:32;;;;;;;5.40;4.90;;;9.00;99.90;;;;;;5056381;28;20326;-71
2021/05/28 00:14:00;;;;;;;6.47;4.97;;;9.10;99.90;;;;;;5056437;28;20578;-71
2021/05/28 00:16:27;;;;;;;5.38;4.88;;;9.10;99.90;;;;;;5058487;28;20226;-71
2021/05/28 00:18:54;;;;;;;5.35;4.90;;;8.90;99.90;;;;;;5060476;28;20230;-71
2021/05/28 00:21:21;;;;;;;9.23;3.95;;;8.80;99.90;;;;;;5060016;28;20270;-70
2021/05/28 00:23:48;;;;;;;5.43;3.95;;;9.20;99.90;;;;;;5054048;28;20270;-70
2021/05/28 00:26:16;;;;;;;5.38;4.88;;;9.10;99.90;;;;;;5060069;28;20204;-71
2021/05/28 00:28:48;;;;;;;7.65;5.43;;;9.00;99.90;;;;;;5053109;28;20252;-71
2021/05/28 00:31:19;;;;;;;4.55;3.95;;;9.00;99.90;;;;;;5060990;28;20272;-71
2021/05/28 00:33:47;;;;;;;6.60;4.70;;;9.20;99.90;;;;;;5046984;28;20233;-71
2021/05/28 00:36:14;;;;;;;5.80;4.22;;;9.20;99.90;;;;;;5059300;28;20199;-70
2021/05/28 00:38:41;;;;;;;6.55;4.70;;;9.20;99.90;;;;;;5052443;28;20208;-70
2021/05/28 00:41:10;;;;;;;6.70;5.47;;;9.20;99.90;;;;;;5059514;28;20297;-71
2021/05/28 00:43:37;;;;;;;5.18;4.10;;;8.90;99.90;;;;;;5053489;28;20295;-70
2021/05/28 00:46:04;;;;;;;7.10;5.00;;;9.00;99.90;;;;;;5060761;28;20200;-70
2021/05/28 00:48:31;;;;;;;6.22;4.70;;;9.00;99.90;;;;;;5059808;28;20216;-71
2021/05/28 00:50:58;;;;;;;6.65;5.30;;;9.10;99.90;;;;;;5046423;28;20262;-71
2021/05/28 00:53:27;;;;;;;5.20;4.70;;;9.10;99.90;;;;;;5057209;28;20215;-71
2021/05/28 00:55:56;;;;;;;6.28;5.28;;;9.10;99.90;;;;;;5055643;28;20488;-71
2021/05/28 00:58:24;;;;;;;5.53;4.90;;;8.80;99.90;;;;;;5046901;28;20270;-71
2021/05/28 01:00:51;;;;;;;5.30;4.80;;;8.80;99.90;;;;;;5055206;28;20233;-71
2021/05/28 01:03:18;;;;;;;5.20;4.75;;;8.80;99.90;;;;;;5053045;28;20203;-71
2021/05/28 01:05:45;;;;;;;7.32;5.63;;;8.90;99.90;;;;;;5057856;28;20262;-71
2021/05/28 01:08:13;;;;;;;5.32;4.82;;;9.00;99.90;;;;;;5044046;28;20262;-71
2021/05/28 01:10:40;;;;;;;7.03;5.47;;;8.90;99.90;;;;;;5058197;28;20208;-71
2021/05/28 01:13:11;;;;;;;5.28;4.57;;;8.90;99.90;;;;;;5060152;28;20218;-70
2021/05/28 01:15:39;;;;;;;5.18;4.68;;;8.70;99.90;;;;;;5059562;28;20208;-71
2021/05/28 01:18:07;;;;;;;6.38;5.18;;;8.60;99.90;;;;;;5059859;28;20200;-71
2021/05/28 01:20:35;;;;;;;6.35;5.32;;;8.70;99.90;;;;;;5062077;28;20227;-70
2021/05/28 01:23:03;;;;;;;6.53;5.90;;;8.70;99.90;;;;;;5057997;28;20204;-71
2021/05/28 01:25:31;;;;;;;6.40;5.10;;;8.60;99.90;;;;;;5057676;28;20540;-70
2021/05/28 01:27:59;;;;;;;8.77;6.60;;;8.60;99.90;;;;;;5058868;28;20207;-70
2021/05/28 01:30:27;;;;;;;6.30;5.22;;;8.60;99.90;;;;;;5054419;28;20331;-70
2021/05/28 01:32:55;;;;;;;5.50;4.90;;;8.80;99.90;;;;;;5059849;28;20207;-70
2021/05/28 01:35:22;;;;;;;8.05;6.07;;;8.90;99.90;;;;;;5059892;28;20433;-71
2021/05/28 01:37:50;;;;;;;7.32;6.00;;;8.80;99.90;;;;;;5058938;28;20903;-70
2021/05/28 01:40:19;;;;;;;5.63;5.13;;;8.80;99.90;;;;;;5044603;28;20239;-70
2021/05/28 01:42:46;;;;;;;7.18;6.40;;;8.90;99.90;;;;;;5059288;28;20565;-70
2021/05/28 01:45:14;;;;;;;5.72;5.22;;;8.80;99.90;;;;;;5058381;28;20253;-70
2021/05/28 01:47:41;;;;;;;6.18;5.55;;;8.80;99.90;;;;;;5059090;28;20211;-71
2021/05/28 01:50:10;;;;;;;7.43;6.63;;;8.80;99.90;;;;;;5058222;28;20249;-71
2021/05/28 01:52:37;;;;;;;7.10;5.68;;;8.80;99.90;;;;;;5059138;28;20318;-71
2021/05/28 01:55:07;;;;;;;6.03;5.43;;;8.80;99.90;;;;;;5054967;28;20212;-71
2021/05/28 01:57:35;;;;;;;7.20;5.30;;;8.60;99.90;;;;;;5045005;28;20445;-70
2021/05/28 02:00:05;;;;;;;6.72;6.03;;;8.50;99.90;;;;;;5058595;28;20462;-70
2021/05/28 02:02:32;;;;;;;6.15;5.25;;;8.60;99.90;;;;;;5057837;28;20207;-71
2021/05/28 02:04:59;;;;;;;7.88;4.90;;;8.60;99.90;;;;;;5057546;28;20207;-71
2021/05/28 02:07:26;;;;;;;5.47;4.97;;;8.50;99.90;;;;;;5057687;28;20241;-71
2021/05/28 02:09:53;;;;;;;8.40;7.10;;;8.60;99.90;;;;;;5058350;28;20241;-69
2021/05/28 02:12:21;;;;;;;8.13;6.97;;;8.70;99.90;;;;;;5058258;28;20207;-70
2021/05/28 02:14:48;;;;;;;6.93;6.22;;;9.00;99.90;;;;;;5059232;28;20249;-70
2021/05/28 02:17:15;;;;;;;6.65;5.85;;;9.20;99.90;;;;;;5058315;28;20207;-71
2021/05/28 02:19:42;;;;;;;7.03;5.97;;;9.30;99.90;;;;;;5057483;28;20265;-70
2021/05/28 02:22:11;;;;;;;5.72;4.65;;;9.30;99.90;;;;;;5058717;28;20211;-69
2021/05/28 02:24:38;;;;;;;6.20;4.97;;;9.50;99.90;;;;;;5056189;28;20203;-71
2021/05/28 02:27:05;;;;;;;5.35;4.85;;;9.50;99.90;;;;;;5058421;28;20394;-70
2021/05/28 02:29:32;;;;;;;5.40;4.90;;;9.70;99.90;;;;;;5057986;28;20203;-70
2021/05/28 02:31:59;;;;;;;5.53;4.88;;;9.90;99.90;;;;;;5058675;28;20261;-70
2021/05/28 02:34:26;;;;;;;5.03;4.63;;;10.10;99.90;;;;;;5056988;28;20231;-69
2021/05/28 02:36:53;;;;;;;6.82;5.03;;;10.20;99.90;;;;;;5038769;28;20242;-70
2021/05/28 02:39:20;;;;;;;8.60;4.57;;;10.20;99.90;;;;;;5051005;28;20225;-70
2021/05/28 02:41:47;;;;;;;6.68;4.68;;;10.30;99.90;;;;;;5052989;28;20244;-70
2021/05/28 02:44:14;;;;;;;5.28;4.80;;;10.40;99.90;;;;;;5038148;28;20272;-70
2021/05/28 02:46:41;;;;;;;6.20;5.40;;;10.10;99.90;;;;;;5037746;28;20202;-71
2021/05/28 02:49:09;;;;;;;5.47;5.00;;;10.30;99.90;;;;;;5039079;28;20217;-70
2021/05/28 02:51:36;;;;;;;5.60;5.10;;;10.50;99.90;;;;;;5053286;28;20265;-70
2021/05/28 02:54:03;;;;;;;8.60;4.93;;;10.40;99.90;;;;;;5050979;28;20200;-70
2021/05/28 02:56:30;;;;;;;5.82;5.07;;;10.60;99.90;;;;;;5051327;28;20259;-70
2021/05/28 02:58:57;;;;;;;5.60;5.13;;;10.50;99.90;;;;;;5058169;28;20241;-70
2021/05/28 03:01:24;;;;;;;4.45;4.05;;;10.50;99.90;;;;;;5057442;28;20232;-70
2021/05/28 03:03:52;;;;;;;5.28;4.82;;;10.50;99.90;;;;;;5057186;28;20203;-71
2021/05/28 03:06:19;;;;;;;6.15;5.30;;;10.50;99.90;;;;;;5058071;28;20398;-70
2021/05/28 03:08:46;;;;;;;6.60;5.93;;;10.60;99.90;;;;;;5055929;28;20411;-71
2021/05/28 03:11:13;;;;;;;7.00;6.18;;;10.80;99.90;;;;;;5048525;28;20249;-70
2021/05/28 03:13:40;;;;;;;7.68;5.00;;;10.80;99.90;;;;;;5048069;28;20210;-71
2021/05/28 03:16:07;;;;;;;5.88;5.32;;;10.90;99.90;;;;;;5044677;28;20570;-70
2021/05/28 03:18:57;;;;;;;7.60;6.10;;;10.60;99.90;;;;;;5057564;28;20458;-71
2021/05/28 03:21:26;;;;;;;5.40;4.90;;;11.00;99.90;;;;;;5045891;28;20229;-70
2021/05/28 03:23:54;;;;;;;5.13;4.65;;;10.90;99.90;;;;;;5057925;28;20232;-70
2021/05/28 03:26:22;;;;;;;6.80;6.20;;;11.10;99.90;;;;;;5056790;28;20211;-70
2021/05/28 03:28:50;;;;;;;7.00;5.63;;;11.30;99.90;;;;;;5056160;28;20214;-70
2021/05/28 03:31:17;;;;;;;7.40;5.75;;;11.50;99.90;;;;;;5052937;28;20210;-70
2021/05/28 03:33:44;;;;;;;10.13;6.75;;;11.70;99.90;;;;;;5057313;28;20244;-71
2021/05/28 03:36:13;;;;;;;6.63;5.25;;;11.80;99.90;;;;;;5057185;28;20503;-71
2021/05/28 03:38:41;;;;;;;6.07;5.30;;;11.80;99.90;;;;;;5057678;28;20209;-70
2021/05/28 03:41:09;;;;;;;6.18;5.57;;;11.80;99.90;;;;;;5057156;28;20300;-70
2021/05/28 03:43:36;;;;;;;5.88;5.22;;;11.70;99.90;;;;;;5057034;28;20524;-71
2021/05/28 03:46:04;;;;;;;7.50;5.80;;;11.80;99.90;;;;;;5057514;28;20214;-70
2021/05/28 03:48:31;;;;;;;5.55;5.00;;;12.00;99.90;;;;;;5052875;28;20210;-71
2021/05/28 03:50:58;;;;;;;8.55;5.32;;;12.10;99.90;;;;;;5040538;28;20215;-71
2021/05/28 03:53:25;;;;;;;5.18;4.63;;;12.20;99.90;;;;;;5057462;28;20214;-70
2021/05/28 03:55:52;;;;;;;5.30;4.80;;;12.20;99.90;;;;;;5060635;28;20512;-71
2021/05/28 03:58:19;;;;;;;11.20;4.78;;;12.20;99.90;;;;;;5060773;28;20259;-70
2021/05/28 04:00:46;;;;;;;8.07;4.78;;;12.20;99.90;;;;;;5060685;28;20272;-70
2021/05/28 04:03:13;;;;;;;4.65;3.90;;;12.10;99.90;;;;;;5061588;28;20203;-71
2021/05/28 04:05:40;;;;;;;7.05;4.97;;;11.90;99.90;;;;;;5060797;28;20758;-71
2021/05/28 04:08:07;;;;;;;5.45;4.60;;;11.90;99.90;;;;;;5060909;28;20249;-71
2021/05/28 04:10:34;;;;;;;4.97;4.45;;;12.10;99.90;;;;;;5057941;28;20726;-71
2021/05/28 04:13:01;;;;;;;5.97;5.43;;;12.00;99.90;;;;;;5051111;28;20245;-70
2021/05/28 04:15:28;;;;;;;6.85;5.18;;;11.90;99.90;;;;;;5060703;28;20256;-69
2021/05/28 04:17:55;;;;;;;5.80;5.30;;;11.90;99.90;;;;;;5057380;28;20211;-70
2021/05/28 04:20:23;;;;;;;5.43;4.95;;;12.00;99.90;;;;;;5055501;28;20214;-70
2021/05/28 04:22:50;;;;;;;9.27;5.50;;;12.00;99.90;;;;;;5051876;28;20253;-70
2021/05/28 04:25:17;;;;;;;7.55;4.90;;;12.00;99.90;;;;;;5053665;28;20207;-70
2021/05/28 04:27:44;;;;;;;5.75;4.93;;;12.00;99.90;;;;;;5087493;28;20246;-71
2021/05/28 04:30:11;;;;;;;5.50;4.97;;;12.10;99.90;;;;;;5054822;28;20372;-71
2021/05/28 04:32:38;;;;;;;5.57;5.05;;;12.00;99.90;;;;;;5057016;28;20211;-70
2021/05/28 04:35:06;;;;;;;5.80;4.32;;;12.00;99.90;;;;;;5048383;28;20252;-71
2021/05/28 04:37:34;;;;;;;4.78;4.38;;;12.10;99.90;;;;;;5060247;28;20203;-71
2021/05/28 04:40:01;;;;;;;10.70;5.80;;;12.20;99.90;;;;;;5045994;28;20244;-71
2021/05/28 04:42:28;;;;;;;9.52;4.93;;;12.20;99.90;;;;;;5050426;28;20246;-71
2021/05/28 04:44:55;;;;;;;5.05;3.95;;;12.30;99.90;;;;;;5047884;28;20215;-70
2021/05/28 04:47:22;;;;;;;4.95;4.43;;;12.20;99.90;;;;;;5060333;28;20195;-70
2021/05/28 04:49:49;;;;;;;6.35;5.00;;;12.20;99.90;;;;;;5060241;28;20215;-71
2021/05/28 04:52:16;;;;;;;5.18;4.60;;;12.30;99.90;;;;;;5042924;28;20253;-71
2021/05/28 04:54:43;;;;;;;9.93;5.78;;;12.50;99.90;;;;;;5053065;28;20235;-71
2021/05/28 04:57:10;;;;;;;5.85;4.53;;;12.50;99.90;;;;;;5059877;28;20486;-71
2021/05/28 04:59:37;;;;;;;5.90;5.07;;;12.70;99.90;;;;;;5059635;28;20264;-71
2021/05/28 05:02:06;;;;;;;5.53;5.03;;;13.10;99.90;;;;;;5056708;28;20227;-71
2021/05/28 05:04:33;;;;;;;7.78;6.07;;;13.40;99.90;;;;;;5049476;28;20210;-72
2021/05/28 05:07:00;;;;;;;6.43;5.82;;;13.70;99.90;;;;;;5058981;28;20493;-71
2021/05/28 05:09:27;;;;;;;10.73;4.90;;;14.00;99.90;;;;;;5053595;28;20232;-70
2021/05/28 05:11:54;;;;;;;6.38;5.07;;;14.20;99.90;;;;;;5054093;28;20233;-70
2021/05/28 05:14:21;;;;;;;6.00;5.50;;;14.40;99.90;;;;;;5059024;28;20298;-71
2021/05/28 05:16:48;;;;;;;6.32;5.72;;;14.60;99.90;;;;;;5059594;28;20440;-70
2021/05/28 05:19:15;;;;;;;9.82;6.25;;;14.80;99.90;;;;;;5058318;28;20211;-70
2021/05/28 05:21:42;;;;;;;6.55;5.68;;;14.80;99.90;;;;;;5059861;28;20257;-70
2021/05/28 05:24:10;;;;;;;5.63;5.13;;;14.80;99.90;;;;;;5043877;28;20233;-71
2021/05/28 05:26:39;;;;;;;8.65;4.80;;;15.00;99.90;;;;;;5070861;28;20750;-71
2021/05/28 05:29:06;;;;;;;5.55;5.05;;;15.30;99.90;;;;;;5054217;28;20257;-71
2021/05/28 05:31:33;;;;;;;8.02;7.22;;;15.40;99.90;;;;;;5039275;28;20258;-71
2021/05/28 05:34:00;;;;;;;6.68;6.03;;;15.50;99.90;;;;;;5052893;28;20266;-71
2021/05/28 05:36:27;;;;;;;7.15;6.45;;;15.40;99.90;;;;;;5053227;28;20203;-71
2021/05/28 05:38:55;;;;;;;6.78;6.15;;;15.60;99.90;;;;;;5059424;28;20214;-71
2021/05/28 05:41:25;;;;;;;7.03;6.43;;;15.70;99.90;;;;;;5053886;28;20240;-71
2021/05/28 05:43:52;;;;;;;8.50;6.35;;;15.70;99.90;;;;;;5059133;28;20211;-72
2021/05/28 05:46:19;;;;;;;5.72;5.22;;;15.80;99.90;;;;;;5054134;28;20231;-71
2021/05/28 05:48:46;;;;;;;7.13;6.53;;;16.00;99.90;;;;;;5044772;28;20208;-70
2021/05/28 05:51:13;;;;;;;9.65;6.10;;;16.10;99.70;;;;;;5055278;28;20216;-71
2021/05/28 05:53:40;;;;;;;6.88;6.18;;;16.40;99.30;;;;;;5055049;28;20196;-72
2021/05/28 05:56:07;;;;;;;8.05;6.45;;;16.30;99.50;;;;;;5058370;28;20207;-70
2021/05/28 05:58:34;;;;;;;7.43;6.73;;;16.40;99.50;;;;;;5057897;28;20516;-72
2021/05/28 06:01:01;;;;;;;6.57;5.97;;;16.00;99.90;;;;;;5058216;28;20459;-71
2021/05/28 06:03:28;;;;;;;11.13;6.65;;;15.70;99.90;;;;;;5055243;28;20752;-72
2021/05/28 06:05:57;;;;;;;11.07;6.82;;;15.40;99.90;;;;;;5056524;28;20213;-71
2021/05/28 06:08:24;;;;;;;8.07;7.32;;;15.10;99.90;;;;;;5058606;28;20223;-72
2021/05/28 06:10:51;;;;;;;6.20;5.70;;;15.00;99.90;;;;;;5058562;28;20436;-71
2021/05/28 06:13:18;;;;;;;7.30;6.70;;;15.10;99.90;;;;;;5057730;28;20210;-71
2021/05/28 06:15:45;;;;;;;7.95;7.25;;;15.30;99.90;;;;;;5057624;28;20253;-71
2021/05/28 06:18:12;;;;;;;6.82;6.30;;;15.60;99.90;;;;;;5052574;28;20212;-72
2021/05/28 06:20:39;;;;;;;7.43;6.50;;;15.90;99.90;;;;;;5055335;28;20272;-71
2021/05/28 06:23:06;;;;;;;7.43;6.73;;;16.20;99.90;;;;;;5057238;28;20240;-71
2021/05/28 06:25:33;;;;;;;6.70;6.10;;;16.70;99.30;;;;;;5057856;28;20425;-70
2021/05/28 06:28:00;;;;;;;7.43;6.83;;;17.00;99.00;;;;;;5054802;28;20310;-71
2021/05/28 06:30:27;;;;;;;9.33;7.23;;;17.10;98.50;;;;;;5042021;28;20634;-71
2021/05/28 06:32:54;;;;;;;8.10;7.30;;;17.40;98.10;;;;;;5055248;28;20823;-70
2021/05/28 06:35:21;;;;;;;10.20;6.77;;;17.70;97.30;;;;;;5056650;28;20478;-70
2021/05/28 06:37:48;;;;;;;7.70;6.77;;;17.40;97.80;;;;;;5056171;28;20421;-72
2021/05/28 06:40:15;;;;;;;5.80;5.40;;;17.50;97.70;;;;;;5055830;28;20444;-70
2021/05/28 06:42:42;;;;;;;6.70;6.20;;;18.00;97.10;;;;;;5079153;28;20769;-71
2021/05/28 06:45:11;;;;;;;7.17;6.60;;;18.40;96.30;;;;;;5042524;28;20415;-70
2021/05/28 06:47:38;;;;;;;7.10;6.33;;;18.80;95.30;;;;;;5057216;28;20419;-71
2021/05/28 06:50:05;;;;;;;6.70;6.07;;;18.70;95.00;;;;;;5057525;28;20784;-72
2021/05/28 06:52:32;;;;;;;7.90;6.00;;;18.30;95.70;;;;;;5057447;28;20434;-71
2021/05/28 06:54:59;;;;;;;6.83;6.10;;;18.10;96.00;;;;;;5047179;28;20447;-71
2021/05/28 06:57:26;;;;;;;7.67;6.73;;;17.90;96.40;;;;;;5055348;28;20687;-71
2021/05/28 06:59:53;;;;;;;7.33;6.77;;;17.80;96.20;;;;;;5057958;28;20644;-71
2021/05/28 07:02:20;;;;;;;7.30;6.60;;;18.00;96.00;;;;;;5056326;28;20545;-71
2021/05/28 07:04:47;;;;;;;6.70;6.03;;;18.60;95.40;;;;;;5057731;28;20415;-70
2021/05/28 07:07:14;;;;;;;6.13;5.60;;;20.40;92.60;;;;;;5057126;28;20415;-71
2021/05/28 07:09:41;;;;;;;6.97;6.47;;;21.70;89.50;;;;;;5051596;28;20514;-70
2021/05/28 07:12:09;;;;;;;6.80;6.30;;;21.90;87.50;;;;;;5084490;28;20474;-72
2021/05/28 07:14:36;;;;;;;6.63;6.20;;;21.20;89.50;;;;;;5054706;28;20440;-72
2021/05/28 07:17:04;;;;;;;6.40;5.90;;;20.30;91.10;;;;;;5057194;28;20583;-70
2021/05/28 07:19:32;;;;;;;6.43;5.93;;;20.20;91.50;;;;;;5054261;28;20970;-70
2021/05/28 07:21:59;;;;;;;7.83;7.20;;;23.10;85.00;;;;;;5055479;28;20499;-70
2021/05/28 07:24:26;;;;;;;6.97;6.57;;;24.60;78.90;;;;;;5053003;28;20426;-70
2021/05/28 07:26:53;;;;;;;7.23;6.83;;;23.90;75.40;;;;;;5053375;28;20479;-71
2021/05/28 07:29:20;;;;;;;6.93;6.53;;;22.00;80.20;;;;;;5060764;28;20615;-70
2021/05/28 07:31:47;;;;;;;7.57;7.07;;;20.70;86.00;;;;;;5059092;28;20458;-70
2021/05/28 07:34:14;;;;;;;6.47;5.97;;;20.40;87.70;;;;;;5060784;28;20465;-70
2021/05/28 07:36:41;;;;;;;6.67;6.27;;;20.10;89.00;;;;;;5060568;28;20415;-71
2021/05/28 07:39:09;;;;;;;7.80;7.30;;;20.20;87.80;;;;;;5061098;28;20512;-72
2021/05/28 07:41:36;;;;;;;6.30;6.00;;;19.90;87.80;;;;;;5048020;28;20533;-71
2021/05/28 07:44:06;;;;;;;6.23;5.80;;;19.50;89.50;;;;;;5061565;28;20412;-70
2021/05/28 07:46:40;;;;;;;6.13;5.73;;;19.30;90.40;;;;;;5047999;28;20411;-71
2021/05/28 07:49:07;;;;;;;7.10;6.60;;;19.80;90.20;;;;;;5053475;28;20639;-71
2021/05/28 07:51:34;;;;;;;7.20;6.80;;;21.20;85.10;;;;;;5056710;28;20435;-70
2021/05/28 07:54:02;;;;;;;7.60;7.10;;;21.70;82.90;;;;;;5060647;28;20469;-70
2021/05/28 07:56:29;;;;;;;7.97;6.33;;;22.70;79.60;;;;;;5061291;28;20452;-70
2021/05/28 07:58:56;;;;;;;7.20;6.60;;;22.30;79.20;;;;;;5058906;28;20467;-71
2021/05/28 08:01:23;;;;;;;7.10;6.60;;;21.60;80.90;;;;;;5061176;28;20603;-70
2021/05/28 08:03:51;;;;;;;7.50;6.90;;;21.30;82.60;;;;;;5060705;28;20421;-69
2021/05/28 08:06:18;;;;;;;6.13;5.73;;;21.00;84.30;;;;;;5060609;28;20424;-69
2021/05/28 08:08:45;;;;;;;6.43;5.93;;;20.70;85.80;;;;;;5058534;28;20759;-71
2021/05/28 08:11:12;;;;;;;10.40;6.60;;;20.70;85.40;;;;;;5061066;28;20739;-71
2021/05/28 08:13:39;;;;;;;7.13;6.63;;;20.00;86.90;;;;;;5059897;28;20446;-71
2021/05/28 08:16:15;;;;;;;6.47;6.07;;;18.90;90.20;;;;;;5059604;28;20419;-71
2021/05/28 08:18:47;;;;;;;6.10;5.60;;;17.70;92.70;;;;;;5059717;28;20500;-72
2021/05/28 08:21:14;;;;;;;7.17;6.60;;;16.50;98.30;;;;;;5054709;28;20433;-71
2021/05/28 08:23:41;;;;;;;9.33;5.20;;;15.60;99.90;;;;;;5056917;28;20470;-70
2021/05/28 08:26:09;;;;;;;5.00;4.60;;;15.20;99.90;;;;;;5056275;28;21359;-71
2021/05/28 08:28:37;;;;;;;5.28;4.88;;;15.00;99.90;;;;;;5058792;28;20442;-70
2021/05/28 08:31:05;;;;;;;4.72;4.20;;;15.10;99.90;;;;;;5059426;28;20231;-72
2021/05/28 08:33:33;;;;;;;4.65;4.35;;;15.40;99.90;;;;;;5059470;28;20240;-71
2021/05/28 08:36:00;;;;;;;4.78;4.30;;;15.30;99.10;;;;;;5059048;28;20204;-72
2021/05/28 08:38:28;;;;;;;4.80;4.40;;;15.20;99.90;;;;;;5059472;28;20279;-69
2021/05/28 08:40:55;;;;;;;6.90;6.20;;;15.10;99.90;;;;;;5054077;28;20232;-69
2021/05/28 08:43:22;;;;;;;6.75;6.15;;;14.90;99.90;;;;;;5051939;28;20287;-71
2021/05/28 08:45:49;;;;;;;6.60;6.00;;;14.60;99.90;;;;;;5057151;28;20225;-71
2021/05/28 08:48:19;;;;;;;7.55;6.10;;;14.40;99.90;;;;;;5059505;28;20215;-70
2021/05/28 08:50:49;;;;;;;6.57;5.97;;;14.60;99.90;;;;;;5053879;28;20422;-71
2021/05/28 08:53:17;;;;;;;6.57;6.03;;;15.00;99.90;;;;;;5054081;28;20223;-71
2021/05/28 08:55:45;;;;;;;5.97;5.47;;;15.20;99.90;;;;;;5059650;28;20308;-70
2021/05/28 08:58:20;;;;;;;5.70;5.20;;;15.40;99.90;;;;;;5054541;28;20256;-70
2021/05/28 09:00:48;;;;;;;5.63;5.20;;;15.60;99.90;;;;;;5053999;28;20202;-70
2021/05/28 09:03:27;;;;;;;8.23;4.90;;;16.70;99.90;;;;;;5059742;28;20236;-72
2021/05/28 09:05:59;;;;;;;4.63;3.40;;;19.90;95.50;;;;;;5054677;28;20426;-70
2021/05/28 09:08:36;;;;;;;4.07;3.77;;;21.10;91.20;;;;;;5053329;28;20411;-72
2021/05/28 09:11:13;;;;;;;4.87;4.67;;;20.10;91.20;;;;;;5048679;28;20412;-72
2021/05/28 09:13:56;;;;;;;5.30;5.00;;;19.30;91.80;;;;;;5059602;28;20810;-70
2021/05/28 09:16:27;;;;;;;4.93;4.63;;;19.60;91.50;;;;;;5058902;28;20446;-71
2021/05/28 09:18:57;;;;;;;6.83;4.97;;;19.90;91.00;;;;;;5059502;28;20455;-70
2021/05/28 09:21:31;;;;;;;5.20;4.90;;;21.60;86.40;;;;;;5058265;28;20424;-69
2021/05/28 09:23:59;;;;;;;8.23;5.30;;;24.00;77.60;;;;;;5058421;28;20420;-70
2021/05/28 09:26:28;;;;;;;6.30;6.00;;;26.30;70.30;;;;;;5059485;28;20445;-70
2021/05/28 09:28:56;;;;;;;6.73;6.43;;;27.20;62.70;;;;;;5048115;28;20440;-69
2021/05/28 09:31:29;;;;;;;6.50;6.20;;;27.30;61.00;;;;;;5047827;28;20453;-68
2021/05/28 09:33:57;;;;;;;6.53;6.20;;;25.40;64.40;;;;;;5059292;28;20617;-69
2021/05/28 09:36:27;;;;;;;7.67;7.27;;;22.80;71.60;;;;;;5057556;28;20426;-72
2021/05/28 09:38:58;;;;;;;7.00;6.63;;;21.40;76.60;;;;;;5058532;28;20452;-69
2021/05/28 09:41:47;;;;;;;5.90;5.50;;;20.40;81.60;;;;;;5058503;28;20473;-70
2021/05/28 09:44:24;;;;;;;6.07;5.77;;;20.00;84.80;;;;;;5059201;28;20432;-71
2021/05/28 09:47:14;;;;;;;6.20;5.90;;;20.10;84.10;;;;;;5058086;28;20443;-72
2021/05/28 09:49:45;;;;;;;6.43;5.83;;;20.30;83.10;;;;;;5058021;28;20429;-70
2021/05/28 09:52:19;;;;;;;6.10;5.77;;;19.90;83.20;;;;;;5058721;28;20526;-70
2021/05/28 09:54:58;;;;;;;6.27;5.87;;;20.00;83.40;;;;;;5058834;28;20407;-70
2021/05/28 09:57:30;;;;;;;5.70;5.40;;;19.80;83.50;;;;;;5057297;28;20566;-69
2021/05/28 10:00:20;;;;;;;6.10;5.70;;;19.70;84.90;;;;;;5058883;28;20501;-71
2021/05/28 10:02:49;;;;;;;7.07;5.37;;;19.70;85.50;;;;;;5049169;28;20486;-70
2021/05/28 10:05:24;;;;;;;6.20;5.60;;;19.70;86.10;;;;;;5057271;28;20412;-71
2021/05/28 10:07:51;;;;;;;5.97;5.60;;;20.20;85.50;;;;;;5059305;28;20426;-69
2021/05/28 10:10:19;;;;;;;6.03;5.63;;;20.60;83.50;;;;;;5045160;28;20482;-70
2021/05/28 10:12:48;;;;;;;6.77;5.20;;;21.10;82.80;;;;;;5058481;28;20775;-70
2021/05/28 10:15:15;;;;;;;5.60;5.30;;;21.30;80.70;;;;;;5058983;28;20456;-70
2021/05/28 10:17:43;;;;;;;5.33;4.77;;;21.00;80.30;;;;;;5057782;28;20432;-70
2021/05/28 10:20:10;;;;;;;5.30;4.90;;;21.40;78.10;;;;;;5058513;28;20470;-70
2021/05/28 10:22:38;;;;;;;4.90;4.60;;;21.40;76.20;;;;;;5057641;28;20738;-71
2021/05/28 10:25:06;;;;;;;4.70;4.30;;;21.10;75.20;;;;;;5058456;28;20419;-70
2021/05/28 10:27:34;;;;;;;4.83;4.63;;;21.00;78.10;;;;;;5057359;28;20441;-69
2021/05/28 10:30:12;;;;;;;5.00;4.80;;;21.00;78.00;;;;;;5059117;28;20479;-70
2021/05/28 10:32:40;;;;;;;4.17;3.97;;;21.00;76.40;;;;;;5055826;28;20478;-70
2021/05/28 10:35:19;;;;;;;5.40;5.00;;;21.10;78.10;;;;;;5047327;28;20472;-69
2021/05/28 10:37:46;;;;;;;5.47;5.00;;;20.80;80.20;;;;;;5057153;28;20419;-69
2021/05/28 10:40:27;;;;;;;5.30;5.00;;;20.40;81.60;;;;;;5056241;28;20435;-71
2021/05/28 10:43:01;;;;;;;4.60;4.40;;;19.80;82.40;;;;;;5057650;28;20492;-69
2021/05/28 10:46:01;;;;;;;5.00;4.80;;;19.70;83.70;;;;;;5072830;28;20461;-71
2021/05/28 10:48:40;;;;;;;5.33;5.03;;;19.70;82.10;;;;;;5055338;28;20444;-70
2021/05/28 10:51:13;;;;;;;4.60;4.40;;;20.00;79.90;;;;;;5057312;28;20605;-71
2021/05/28 10:54:01;;;;;;;5.20;4.40;;;20.10;78.40;;;;;;5057895;28;20618;-71
2021/05/28 10:56:43;;;;;;;4.80;4.50;;;20.30;79.90;;;;;;5056875;28;20457;-69
2021/05/28 10:59:14;;;;;;;5.10;4.80;;;20.50;79.90;;;;;;5054565;28;20503;-69
2021/05/28 11:01:48;;;;;;;4.33;4.13;;;21.00;78.80;;;;;;5057258;28;20410;-70
2021/05/28 11:04:17;;;;;;;4.70;4.40;;;21.40;76.00;;;;;;5057343;28;20470;-70
2021/05/28 11:06:56;;;;;;;5.00;4.70;;;21.50;76.10;;;;;;5054790;28;20412;-72
2021/05/28 11:09:50;;;;;;;4.93;4.73;;;21.40;75.10;;;;;;5057744;28;20484;-70
2021/05/28 11:12:26;;;;;;;5.00;4.70;;;21.20;75.40;;;;;;5053504;28;20436;-71
2021/05/28 11:15:15;;;;;;;4.60;4.17;;;21.50;75.50;;;;;;5050194;28;20473;-70
2021/05/28 11:17:58;;;;;;;4.47;4.27;;;21.10;76.00;;;;;;5054752;28;20428;-70
2021/05/28 11:20:35;;;;;;;6.90;4.50;;;20.60;76.00;;;;;;5054285;28;20442;-71
2021/05/28 11:23:16;;;;;;;4.90;4.60;;;19.80;78.60;;;;;;5045976;28;20454;-69
2021/05/28 11:25:53;;;;;;;5.67;5.37;;;19.10;83.70;;;;;;5052810;28;20429;-70
2021/05/28 11:28:22;;;;;;;5.50;5.00;;;18.50;88.70;;;;;;5049703;28;20415;-70
2021/05/28 11:30:54;;;;;;;4.70;4.40;;;18.10;90.50;;;;;;5054584;28;20415;-70
2021/05/28 11:33:39;;;;;;;4.10;3.90;;;18.00;90.40;;;;;;5046093;28;20618;-71
2021/05/28 11:36:24;;;;;;;4.17;3.97;;;18.30;88.00;;;;;;5059307;28;20415;-69
2021/05/28 11:38:59;;;;;;;3.80;3.63;;;18.60;84.20;;;;;;5056737;28;20418;-71
2021/05/28 11:41:51;;;;;;;4.10;3.90;;;18.90;82.50;;;;;;5050765;28;20503;-70
2021/05/28 11:44:20;;;;;;;4.20;3.90;;;19.10;82.60;;;;;;5047529;28;20490;-70
2021/05/28 11:46:52;;;;;;;3.83;3.67;;;19.20;81.40;;;;;;5055728;28;20453;-72
2021/05/28 11:49:22;;;;;;;5.03;4.73;;;19.80;80.80;;;;;;5049797;28;20444;-71
2021/05/28 11:52:05;;;;;;;4.93;4.63;;;20.30;80.80;;;;;;5050765;28;20420;-71
2021/05/28 11:54:35;;;;;;;6.00;5.40;;;20.50;80.90;;;;;;5052138;28;20670;-71
2021/05/28 11:57:12;;;;;;;6.60;4.23;;;20.60;82.40;;;;;;5048916;28;20419;-71
2021/05/28 11:59:43;;;;;;;5.23;4.97;;;20.30;84.10;;;;;;5056465;28;20399;-71
2021/05/28 12:02:11;;;;;;;11.17;7.53;;;19.80;86.70;;;;;;5049822;28;20780;-72
2021/05/28 12:04:38;;;;;;;4.27;3.90;;;19.50;85.90;;;;;;5050215;28;20456;-71
2021/05/28 12:07:10;;;;;;;3.90;3.70;;;19.20;86.60;;;;;;5055157;28;20422;-71
2021/05/28 12:10:07;;;;;;;4.63;4.33;;;19.20;88.70;;;;;;5056513;28;20634;-72
2021/05/28 12:12:54;;;;;;;8.33;3.90;;;19.20;88.80;;;;;;5050164;28;20419;-70
2021/05/28 12:15:30;;;;;;;5.60;4.63;;;19.40;86.60;;;;;;5060932;28;20515;-73
2021/05/28 12:18:00;;;;;;;4.17;3.93;;;19.30;88.20;;;;;;5044355;28;20445;-70
2021/05/28 12:20:33;;;;;;;4.33;3.97;;;19.40;87.20;;;;;;5044416;28;20745;-69
2021/05/28 12:23:10;;;;;;;3.97;3.77;;;19.40;87.50;;;;;;5059228;28;20476;-71
2021/05/28 12:25:43;;;;;;;4.70;4.40;;;19.30;87.90;;;;;;5050934;28;20445;-69
2021/05/28 12:28:18;;;;;;;5.80;4.20;;;19.40;87.70;;;;;;5055643;28;20445;-70
2021/05/28 12:30:51;;;;;;;4.67;4.27;;;19.80;87.70;;;;;;5055774;28;20802;-70
2021/05/28 12:33:23;;;;;;;4.20;4.00;;;20.00;86.40;;;;;;5059371;28;20407;-69
2021/05/28 12:35:52;;;;;;;3.43;3.33;;;20.00;84.20;;;;;;5059368;28;20479;-71
2021/05/28 12:38:22;;;;;;;3.90;3.70;;;20.20;83.00;;;;;;5059412;28;20515;-70
2021/05/28 12:40:51;;;;;;;3.70;3.60;;;20.60;81.10;;;;;;5059229;28;20457;-70
2021/05/28 12:43:21;;;;;;;3.80;3.67;;;20.50;75.70;;;;;;5059064;28;20458;-72
2021/05/28 12:45:49;;;;;;;9.13;3.90;;;20.50;78.10;;;;;;5059134;28;20699;-70
2021/05/28 12:48:17;;;;;;;4.30;4.00;;;20.70;79.80;;;;;;5057455;28;20411;-70
2021/05/28 12:50:47;;;;;;;3.93;3.73;;;20.60;78.60;;;;;;5058134;28;20414;-73
2021/05/28 12:53:18;;;;;;;3.90;3.70;;;20.80;79.80;;;;;;5059426;28;20453;-71
2021/05/28 12:55:54;;;;;;;3.57;3.47;;;20.90;78.30;;;;;;5046540;28;20726;-71
2021/05/28 12:58:32;;;;;;;3.97;3.77;;;20.90;79.30;;;;;;5059417;28;20490;-70
2021/05/28 13:01:04;;;;;;;4.40;4.00;;;20.90;81.70;;;;;;5048458;28;20986;-71